createdAt,value
2019-05-07T00:00:23.465Z,15.50
2019-05-07T00:01:23.505Z,13.40
2019-05-07T00:02:23.451Z,11.60
2019-05-07T00:03:23.443Z,13.20
2019-05-07T00:04:23.430Z,12.10
2019-05-07T00:05:23.415Z,16.50
2019-05-07T00:06:23.408Z,12.50
2019-05-07T00:07:23.395Z,15.20
2019-05-07T00:08:23.387Z,12.60
2019-05-07T00:09:23.580Z,16.30
2019-05-07T00:10:24.901Z,13.20
2019-05-07T00:11:23.351Z,12.40
2019-05-07T00:12:23.338Z,12.70
2019-05-07T00:13:23.344Z,11.50
2019-05-07T00:14:23.319Z,13.60
2019-05-07T00:15:23.316Z,11.70
2019-05-07T00:16:23.296Z,17.60
2019-05-07T00:17:23.300Z,11.70
2019-05-07T00:18:23.277Z,14.40
2019-05-07T00:19:23.300Z,13.70
2019-05-07T00:20:23.264Z,15.10
2019-05-07T00:21:23.517Z,13.10
2019-05-07T00:22:23.229Z,15.20
2019-05-07T00:23:23.366Z,15.10
2019-05-07T00:24:23.209Z,11.40
2019-05-07T00:25:23.200Z,11.40
2019-05-07T00:26:23.189Z,16.40
2019-05-07T00:27:23.179Z,11.60
2019-05-07T00:28:23.261Z,11.60
2019-05-07T00:29:23.155Z,14.00
2019-05-07T00:30:23.150Z,12.80
2019-05-07T00:31:23.423Z,16.70
2019-05-07T00:32:23.122Z,15.50
2019-05-07T00:33:23.137Z,13.90
2019-05-07T00:34:23.140Z,10.80
2019-05-07T00:35:23.091Z,13.20
2019-05-07T00:36:23.180Z,11.70
2019-05-07T00:37:23.071Z,14.80
2019-05-07T00:38:23.058Z,11.90
2019-05-07T00:39:23.052Z,12.40
2019-05-07T00:40:23.036Z,13.20
2019-05-07T00:41:23.034Z,11.70
2019-05-07T00:42:23.022Z,13.10
2019-05-07T00:43:23.006Z,14.50
2019-05-07T00:44:22.997Z,14.50
2019-05-07T00:45:23.874Z,16.30
2019-05-07T00:46:22.972Z,15.50
2019-05-07T00:47:22.968Z,14.70
2019-05-07T00:48:23.589Z,14.80
2019-05-07T00:49:23.034Z,15.90
2019-05-07T00:50:22.929Z,14.40
2019-05-07T00:51:22.918Z,15.60
2019-05-07T00:52:22.908Z,13.30
2019-05-07T00:53:23.728Z,17.50
2019-05-07T00:54:23.132Z,16.50
2019-05-07T00:55:22.885Z,14.40
2019-05-07T00:56:22.874Z,15.60
2019-05-07T00:57:23.019Z,16.20
2019-05-07T00:58:26.563Z,13.30
2019-05-07T00:59:22.843Z,15.80
2019-05-07T01:00:22.823Z,16.10
2019-05-07T01:01:22.939Z,16.10
2019-05-07T01:02:22.829Z,15.00
2019-05-07T01:03:22.800Z,17.20
2019-05-07T01:04:23.078Z,15.50
2019-05-07T01:05:23.193Z,14.40
2019-05-07T01:06:25.998Z,13.50
2019-05-07T01:07:23.102Z,18.40
2019-05-07T01:08:22.808Z,14.30
2019-05-07T01:09:23.052Z,16.50
2019-05-07T01:10:22.722Z,15.50
2019-05-07T01:11:22.824Z,14.80
2019-05-07T01:12:22.695Z,18.10
2019-05-07T01:13:23.381Z,15.60
2019-05-07T01:14:22.975Z,15.30
2019-05-07T01:15:30.709Z,16.50
2019-05-07T01:16:23.654Z,12.90
2019-05-07T01:17:22.910Z,12.20
2019-05-07T01:18:23.433Z,14.00
2019-05-07T01:19:22.627Z,15.60
2019-05-07T01:20:22.612Z,19.80
2019-05-07T01:21:22.811Z,14.30
2019-05-07T01:22:22.598Z,20.00
2019-05-07T01:23:22.998Z,15.40
2019-05-07T01:24:23.314Z,15.30
2019-05-07T01:25:22.563Z,16.90
2019-05-07T01:26:22.574Z,12.70
2019-05-07T01:27:22.822Z,17.00
2019-05-07T01:28:22.613Z,15.50
2019-05-07T01:29:22.733Z,13.70
2019-05-07T01:30:23.095Z,17.90
2019-05-07T01:31:22.494Z,16.20
2019-05-07T01:32:22.485Z,14.50
2019-05-07T01:33:22.785Z,18.00
2019-05-07T01:34:23.109Z,16.60
2019-05-07T01:35:22.520Z,13.40
2019-05-07T01:36:22.718Z,16.50
2019-05-07T01:37:23.077Z,13.10
2019-05-07T01:38:22.992Z,14.40
2019-05-07T01:39:23.194Z,14.60
2019-05-07T01:40:22.874Z,14.60
2019-05-07T01:41:23.100Z,16.40
2019-05-07T01:42:22.375Z,16.20
2019-05-07T01:43:22.839Z,15.60
2019-05-07T01:44:22.354Z,15.50
2019-05-07T01:45:25.000Z,15.90
2019-05-07T01:46:24.501Z,20.40
2019-05-07T01:47:23.716Z,13.90
2019-05-07T01:48:22.986Z,15.20
2019-05-07T01:49:24.076Z,17.00
2019-05-07T01:50:22.837Z,17.70
2019-05-07T01:51:22.348Z,16.20
2019-05-07T01:52:22.726Z,15.90
2019-05-07T01:53:22.864Z,15.40
2019-05-07T01:54:23.820Z,15.90
2019-05-07T01:55:22.678Z,16.80
2019-05-07T01:56:22.943Z,14.30
2019-05-07T01:57:23.151Z,17.40
2019-05-07T01:58:22.264Z,17.10
2019-05-07T01:59:22.606Z,16.20
2019-05-07T02:00:22.525Z,17.80
2019-05-07T02:01:22.279Z,15.70
2019-05-07T02:02:22.849Z,16.90
2019-05-07T02:03:23.106Z,15.60
2019-05-07T02:04:22.442Z,20.90
2019-05-07T02:05:22.885Z,15.00
2019-05-07T02:06:22.166Z,16.30
2019-05-07T02:07:22.710Z,16.40
2019-05-07T02:08:22.273Z,19.20
2019-05-07T02:09:22.545Z,15.60
2019-05-07T02:10:22.734Z,16.30
2019-05-07T02:11:22.064Z,15.30
2019-05-07T02:12:22.266Z,14.80
2019-05-07T02:13:22.414Z,17.90
2019-05-07T02:14:22.025Z,21.60
2019-05-07T02:15:22.608Z,19.70
2019-05-07T02:16:22.012Z,17.80
2019-05-07T02:17:22.862Z,17.50
2019-05-07T02:18:21.985Z,15.80
2019-05-07T02:19:22.066Z,18.30
2019-05-07T02:20:22.526Z,17.50
2019-05-07T02:21:22.176Z,15.90
2019-05-07T02:22:22.662Z,17.70
2019-05-07T02:23:22.226Z,15.80
2019-05-07T02:24:22.021Z,19.60
2019-05-07T02:25:22.182Z,15.20
2019-05-07T02:26:22.565Z,18.80
2019-05-07T02:27:22.218Z,15.40
2019-05-07T02:28:22.316Z,15.90
2019-05-07T02:29:22.815Z,18.40
2019-05-07T02:30:23.705Z,14.30
2019-05-07T02:31:23.276Z,17.70
2019-05-07T02:32:24.131Z,14.80
2019-05-07T02:33:23.009Z,15.80
2019-05-07T02:34:23.443Z,14.60
2019-05-07T02:35:23.525Z,16.40
2019-05-07T02:36:23.707Z,16.10
2019-05-07T02:37:23.227Z,14.40
2019-05-07T02:38:23.037Z,16.10
2019-05-07T02:39:24.040Z,17.30
2019-05-07T02:40:22.884Z,18.30
2019-05-07T02:41:23.341Z,13.90
2019-05-07T02:42:23.907Z,17.30
2019-05-07T02:43:22.752Z,16.40
2019-05-07T02:44:23.235Z,17.00
2019-05-07T02:45:23.975Z,16.10
2019-05-07T02:46:30.434Z,15.60
2019-05-07T02:47:23.660Z,17.60
2019-05-07T02:48:23.669Z,15.70
2019-05-07T02:49:23.428Z,18.70
2019-05-07T02:50:22.750Z,15.20
2019-05-07T02:51:23.941Z,13.60
2019-05-07T02:52:23.018Z,16.50
2019-05-07T02:53:22.777Z,16.60
2019-05-07T02:54:24.154Z,16.50
2019-05-07T02:55:23.219Z,18.20
2019-05-07T02:56:23.684Z,16.40
2019-05-07T02:57:23.992Z,15.90
2019-05-07T02:58:24.019Z,18.60
2019-05-07T02:59:23.349Z,15.90
2019-05-07T03:00:24.214Z,16.30
2019-05-07T03:01:22.654Z,16.60
2019-05-07T03:02:24.057Z,16.80
2019-05-07T03:03:24.329Z,16.80
2019-05-07T03:04:24.601Z,17.50
2019-05-07T03:05:23.071Z,15.00
2019-05-07T03:06:23.358Z,16.80
2019-05-07T03:07:24.146Z,15.60
2019-05-07T03:08:26.946Z,15.20
2019-05-07T03:09:22.860Z,19.00
2019-05-07T03:10:23.693Z,19.10
2019-05-07T03:11:22.926Z,17.30
2019-05-07T03:12:23.696Z,16.90
2019-05-07T03:13:23.758Z,18.20
2019-05-07T03:14:23.334Z,17.40
2019-05-07T03:15:24.211Z,20.40
2019-05-07T03:16:38.144Z,16.50
2019-05-07T03:17:24.637Z,18.20
2019-05-07T03:18:23.240Z,18.20
2019-05-07T03:19:24.209Z,18.00
2019-05-07T03:20:22.960Z,16.80
2019-05-07T03:21:23.489Z,19.70
2019-05-07T03:22:23.217Z,19.20
2019-05-07T03:23:22.772Z,19.60
2019-05-07T03:24:23.123Z,16.10
2019-05-07T03:25:23.110Z,19.30
2019-05-07T03:26:23.059Z,15.90
2019-05-07T03:27:23.423Z,17.00
2019-05-07T03:28:23.202Z,18.00
2019-05-07T03:29:23.942Z,16.90
2019-05-07T03:30:26.201Z,17.70
2019-05-07T03:31:26.224Z,17.30
2019-05-07T03:32:26.705Z,17.90
2019-05-07T03:33:26.227Z,18.00
2019-05-07T03:34:25.604Z,16.80
2019-05-07T03:35:21.157Z,20.20
2019-05-07T03:36:25.814Z,19.60
2019-05-07T03:37:23.438Z,18.90
2019-05-07T03:38:22.832Z,17.20
2019-05-07T03:39:23.814Z,19.70
2019-05-07T03:40:23.069Z,16.20
2019-05-07T03:41:22.686Z,18.70
2019-05-07T03:42:23.534Z,17.50
2019-05-07T03:43:22.852Z,17.40
2019-05-07T03:44:23.907Z,16.70
2019-05-07T03:45:23.103Z,18.90
2019-05-07T03:46:23.454Z,15.30
2019-05-07T03:47:23.707Z,17.60
2019-05-07T03:48:23.911Z,22.10
2019-05-07T03:49:22.517Z,17.00
2019-05-07T03:50:23.347Z,16.20
2019-05-07T03:51:23.549Z,17.10
2019-05-07T03:52:24.115Z,17.50
2019-05-07T03:53:23.173Z,17.00
2019-05-07T03:54:23.776Z,16.50
2019-05-07T03:55:23.358Z,20.60
2019-05-07T03:56:23.374Z,17.50
2019-05-07T03:57:23.691Z,18.40
2019-05-07T03:58:23.610Z,20.70
2019-05-07T03:59:23.099Z,17.00
2019-05-07T04:00:23.658Z,18.80
2019-05-07T04:01:23.731Z,17.50
2019-05-07T04:02:23.951Z,16.60
2019-05-07T04:03:24.291Z,20.20
2019-05-07T04:04:22.993Z,19.40
2019-05-07T04:05:23.193Z,18.40
2019-05-07T04:06:23.206Z,18.70
2019-05-07T04:07:23.246Z,17.90
2019-05-07T04:08:23.766Z,20.70
2019-05-07T04:09:23.870Z,18.10
2019-05-07T04:10:23.164Z,15.70
2019-05-07T04:11:23.019Z,20.20
2019-05-07T04:12:23.472Z,19.10
2019-05-07T04:13:23.734Z,17.80
2019-05-07T04:14:23.073Z,17.40
2019-05-07T04:15:23.305Z,19.20
2019-05-07T04:16:23.608Z,24.40
2019-05-07T04:17:23.192Z,17.80
2019-05-07T04:18:23.577Z,21.70
2019-05-07T04:19:23.388Z,19.40
2019-05-07T04:20:23.676Z,15.80
2019-05-07T04:21:23.164Z,17.10
2019-05-07T04:22:24.163Z,17.40
2019-05-07T04:23:23.233Z,18.30
2019-05-07T04:24:23.338Z,18.60
2019-05-07T04:25:23.730Z,22.80
2019-05-07T04:26:23.245Z,17.90
2019-05-07T04:27:23.662Z,20.50
2019-05-07T04:28:23.330Z,21.00
2019-05-07T04:29:23.138Z,17.40
2019-05-07T04:30:23.310Z,17.10
2019-05-07T04:31:22.959Z,20.40
2019-05-07T04:32:23.035Z,18.70
2019-05-07T04:33:23.463Z,20.30
2019-05-07T04:34:23.459Z,18.50
2019-05-07T04:35:20.506Z,18.70
2019-05-07T04:36:23.013Z,20.40
2019-05-07T04:37:23.747Z,19.60
2019-05-07T04:38:23.587Z,22.50
2019-05-07T04:39:23.208Z,19.50
2019-05-07T04:40:23.700Z,19.00
2019-05-07T04:41:23.227Z,21.30
2019-05-07T04:42:24.036Z,18.90
2019-05-07T04:43:23.059Z,20.30
2019-05-07T04:44:23.261Z,20.30
2019-05-07T04:45:23.104Z,21.80
2019-05-07T04:46:23.301Z,21.40
2019-05-07T04:47:36.900Z,20.70
2019-05-07T04:48:23.328Z,18.70
2019-05-07T04:49:23.584Z,19.70
2019-05-07T04:50:37.833Z,19.30
2019-05-07T04:51:23.205Z,19.90
2019-05-07T04:52:23.659Z,20.80
2019-05-07T04:53:23.384Z,19.90
2019-05-07T04:54:23.448Z,18.90
2019-05-07T04:55:22.902Z,21.30
2019-05-07T04:56:23.550Z,20.40
2019-05-07T04:57:20.270Z,24.20
2019-05-07T04:58:23.330Z,23.60
2019-05-07T04:59:20.305Z,23.40
2019-05-07T05:00:22.828Z,20.60
2019-05-07T05:01:23.209Z,21.60
2019-05-07T05:02:22.865Z,21.00
2019-05-07T05:03:20.209Z,22.50
2019-05-07T05:04:29.011Z,21.70
2019-05-07T05:05:23.648Z,19.70
2019-05-07T05:06:20.168Z,22.50
2019-05-07T05:07:22.418Z,18.10
2019-05-07T05:08:22.571Z,19.70
2019-05-07T05:09:20.250Z,20.90
2019-05-07T05:10:22.764Z,19.80
2019-05-07T05:11:20.114Z,20.40
2019-05-07T05:12:22.461Z,24.40
2019-05-07T05:13:20.108Z,17.40
2019-05-07T05:14:22.658Z,20.50
2019-05-07T05:15:22.072Z,18.50
2019-05-07T05:16:22.323Z,22.40
2019-05-07T05:17:22.345Z,20.60
2019-05-07T05:18:21.949Z,21.50
2019-05-07T05:19:20.037Z,21.10
2019-05-07T05:20:22.059Z,21.60
2019-05-07T05:21:20.048Z,22.10
2019-05-07T05:22:22.042Z,22.10
2019-05-07T05:23:19.989Z,20.10
2019-05-07T05:24:22.087Z,21.60
2019-05-07T05:25:19.967Z,18.40
2019-05-07T05:26:21.921Z,19.10
2019-05-07T05:27:19.942Z,20.70
2019-05-07T05:28:21.874Z,20.90
2019-05-07T05:29:19.926Z,20.60
2019-05-07T05:30:21.863Z,20.40
2019-05-07T05:31:22.143Z,21.30
2019-05-07T05:32:19.889Z,21.30
2019-05-07T05:33:19.882Z,22.80
2019-05-07T05:34:22.104Z,25.40
2019-05-07T05:35:22.048Z,18.60
2019-05-07T05:36:22.008Z,20.60
2019-05-07T05:37:19.834Z,20.70
2019-05-07T05:38:21.863Z,21.60
2019-05-07T05:39:22.342Z,21.20
2019-05-07T05:40:19.803Z,22.20
2019-05-07T05:41:19.791Z,23.30
2019-05-07T05:42:19.785Z,21.00
2019-05-07T05:43:19.771Z,24.30
2019-05-07T05:44:19.766Z,23.60
2019-05-07T05:45:21.722Z,22.40
2019-05-07T05:46:19.742Z,21.10
2019-05-07T05:47:22.055Z,19.80
2019-05-07T05:48:19.722Z,22.30
2019-05-07T05:49:19.712Z,22.50
2019-05-07T05:50:21.702Z,20.50
2019-05-07T05:51:19.686Z,23.90
2019-05-07T05:52:21.536Z,24.40
2019-05-07T05:53:21.761Z,22.50
2019-05-07T05:54:19.662Z,23.30
2019-05-07T05:55:19.642Z,23.20
2019-05-07T05:56:19.644Z,23.50
2019-05-07T05:57:19.620Z,27.10
2019-05-07T05:58:19.609Z,27.00
2019-05-07T05:59:27.283Z,25.80
2019-05-07T06:00:22.128Z,24.40
2019-05-07T06:01:19.584Z,26.60
2019-05-07T06:02:19.568Z,25.70
2019-05-07T06:03:19.555Z,26.40
2019-05-07T06:04:21.980Z,23.40
2019-05-07T06:05:19.534Z,27.40
2019-05-07T06:06:21.814Z,29.60
2019-05-07T06:07:19.525Z,22.80
2019-05-07T06:08:19.505Z,27.20
2019-05-07T06:09:21.757Z,23.80
2019-05-07T06:10:19.481Z,27.30
2019-05-07T06:11:21.741Z,25.10
2019-05-07T06:12:19.459Z,25.40
2019-05-07T06:13:19.451Z,25.60
2019-05-07T06:14:19.447Z,24.20
2019-05-07T06:15:19.450Z,25.50
2019-05-07T06:16:19.416Z,25.10
2019-05-07T06:17:19.411Z,21.50
2019-05-07T06:18:21.865Z,21.10
2019-05-07T06:19:19.388Z,25.20
2019-05-07T06:20:19.435Z,22.20
2019-05-07T06:21:19.365Z,25.40
2019-05-07T06:22:19.356Z,23.20
2019-05-07T06:23:19.341Z,23.70
2019-05-07T06:24:19.349Z,21.50
2019-05-07T06:25:19.325Z,25.40
2019-05-07T06:26:19.308Z,23.60
2019-05-07T06:27:19.300Z,21.80
2019-05-07T06:28:19.287Z,20.80
2019-05-07T06:29:20.233Z,27.20
2019-05-07T06:30:19.268Z,21.40
2019-05-07T06:31:19.262Z,23.50
2019-05-07T06:32:19.244Z,21.70
2019-05-07T06:33:19.237Z,26.20
2019-05-07T06:34:19.224Z,19.50
2019-05-07T06:35:19.508Z,23.00
2019-05-07T06:36:19.201Z,23.40
2019-05-07T06:37:19.195Z,24.60
2019-05-07T06:38:19.180Z,20.80
2019-05-07T06:39:19.170Z,25.60
2019-05-07T06:40:21.446Z,23.20
2019-05-07T06:41:19.149Z,21.00
2019-05-07T06:42:19.140Z,23.20
2019-05-07T06:43:19.152Z,25.50
2019-05-07T06:44:19.119Z,19.50
2019-05-07T06:45:19.121Z,22.80
2019-05-07T06:46:19.096Z,20.80
2019-05-07T06:47:19.088Z,23.90
2019-05-07T06:48:33.021Z,24.30
2019-05-07T06:49:22.165Z,23.00
2019-05-07T06:50:19.063Z,22.70
2019-05-07T06:51:19.055Z,24.70
2019-05-07T06:52:19.031Z,29.90
2019-05-07T06:53:19.022Z,18.00
2019-05-07T06:54:19.013Z,24.20
2019-05-07T06:55:19.010Z,22.50
2019-05-07T06:56:18.991Z,26.80
2019-05-07T06:57:19.027Z,23.30
2019-05-07T06:58:18.967Z,22.90
2019-05-07T06:59:18.956Z,20.60
2019-05-07T07:00:18.956Z,21.70
2019-05-07T07:01:18.936Z,23.90
2019-05-07T07:02:18.927Z,20.20
2019-05-07T07:03:18.914Z,22.90
2019-05-07T07:04:18.905Z,23.30
2019-05-07T07:05:18.916Z,29.40
2019-05-07T07:06:18.884Z,23.40
2019-05-07T07:07:27.341Z,27.00
2019-05-07T07:08:19.868Z,22.80
2019-05-07T07:09:18.851Z,24.00
2019-05-07T07:10:18.840Z,22.80
2019-05-07T07:11:18.834Z,27.70
2019-05-07T07:12:18.855Z,26.20
2019-05-07T07:13:18.810Z,20.80
2019-05-07T07:14:18.798Z,21.10
2019-05-07T07:15:18.788Z,18.40
2019-05-07T07:16:18.782Z,20.00
2019-05-07T07:17:18.769Z,22.50
2019-05-07T07:18:18.756Z,21.10
2019-05-07T07:19:18.787Z,25.60
2019-05-07T07:20:18.735Z,23.40
2019-05-07T07:21:18.736Z,18.50
2019-05-07T07:22:18.716Z,22.90
2019-05-07T07:23:18.705Z,21.60
2019-05-07T07:24:18.693Z,23.30
2019-05-07T07:25:18.684Z,19.30
2019-05-07T07:26:18.682Z,20.30
2019-05-07T07:27:18.663Z,20.30
2019-05-07T07:28:18.653Z,21.10
2019-05-07T07:29:18.642Z,21.50
2019-05-07T07:30:18.629Z,22.40
2019-05-07T07:31:18.621Z,22.90
2019-05-07T07:32:18.612Z,24.60
2019-05-07T07:33:18.602Z,22.90
2019-05-07T07:34:18.594Z,22.40
2019-05-07T07:35:18.581Z,24.90
2019-05-07T07:36:18.583Z,19.70
2019-05-07T07:37:18.557Z,19.10
2019-05-07T07:38:18.551Z,19.00
2019-05-07T07:39:18.535Z,17.70
2019-05-07T07:40:18.525Z,22.40
2019-05-07T07:41:18.591Z,17.40
2019-05-07T07:42:18.506Z,20.20
2019-05-07T07:43:18.494Z,19.40
2019-05-07T07:44:18.484Z,18.00
2019-05-07T07:45:18.469Z,17.70
2019-05-07T07:46:18.463Z,21.10
2019-05-07T07:47:18.450Z,19.70
2019-05-07T07:48:18.485Z,19.90
2019-05-07T07:49:18.446Z,22.20
2019-05-07T07:50:18.422Z,19.40
2019-05-07T07:51:18.420Z,20.80
2019-05-07T07:52:18.399Z,16.20
2019-05-07T07:53:18.385Z,15.80
2019-05-07T07:54:18.375Z,17.50
2019-05-07T07:55:18.365Z,17.60
2019-05-07T07:56:18.363Z,13.90
2019-05-07T07:57:18.347Z,16.70
2019-05-07T07:58:18.366Z,14.60
2019-05-07T07:59:18.324Z,18.70
2019-05-07T08:00:18.312Z,14.30
2019-05-07T08:01:18.309Z,16.30
2019-05-07T08:02:18.289Z,17.60
2019-05-07T08:03:18.283Z,16.00
2019-05-07T08:04:18.268Z,18.50
2019-05-07T08:05:18.255Z,17.00
2019-05-07T08:06:18.243Z,15.40
2019-05-07T08:07:18.238Z,14.90
2019-05-07T08:08:18.223Z,15.50
2019-05-07T08:09:18.212Z,19.40
2019-05-07T08:10:18.235Z,17.30
2019-05-07T08:11:18.190Z,14.90
2019-05-07T08:12:18.185Z,13.50
2019-05-07T08:13:18.167Z,16.50
2019-05-07T08:14:18.157Z,15.30
2019-05-07T08:15:21.266Z,11.60
2019-05-07T08:16:19.136Z,10.70
2019-05-07T08:17:18.142Z,10.60
2019-05-07T08:18:18.145Z,13.00
2019-05-07T08:19:22.013Z,9.60
2019-05-07T08:20:19.106Z,9.90
2019-05-07T08:21:18.080Z,13.50
2019-05-07T08:22:18.084Z,8.80
2019-05-07T08:23:18.060Z,14.80
2019-05-07T08:24:18.047Z,10.70
2019-05-07T08:25:18.040Z,9.00
2019-05-07T08:26:18.029Z,14.30
2019-05-07T08:27:18.031Z,10.60
2019-05-07T08:28:18.021Z,10.80
2019-05-07T08:29:17.999Z,12.90
2019-05-07T08:30:17.982Z,14.70
2019-05-07T08:31:17.973Z,13.50
2019-05-07T08:32:17.995Z,10.90
2019-05-07T08:33:17.953Z,12.40
2019-05-07T08:34:17.943Z,11.90
2019-05-07T08:35:17.938Z,14.00
2019-05-07T08:36:17.920Z,11.20
2019-05-07T08:37:17.919Z,17.50
2019-05-07T08:38:17.898Z,9.30
2019-05-07T08:39:17.892Z,9.90
2019-05-07T08:40:17.874Z,9.00
2019-05-07T08:41:17.869Z,10.50
2019-05-07T08:42:17.891Z,11.80
2019-05-07T08:43:17.844Z,8.10
2019-05-07T08:44:17.832Z,10.70
2019-05-07T08:45:17.911Z,8.50
2019-05-07T08:46:17.826Z,7.90
2019-05-07T08:47:17.806Z,8.00
2019-05-07T08:48:17.792Z,10.60
2019-05-07T08:49:17.778Z,7.30
2019-05-07T08:50:17.767Z,10.30
2019-05-07T08:51:17.756Z,13.90
2019-05-07T08:52:17.752Z,9.00
2019-05-07T08:53:17.821Z,10.50
2019-05-07T08:54:17.725Z,12.00
2019-05-07T08:55:17.713Z,10.60
2019-05-07T08:56:17.716Z,11.00
2019-05-07T08:57:17.695Z,9.20
2019-05-07T08:58:17.686Z,7.00
2019-05-07T08:59:17.672Z,7.90
2019-05-07T09:00:17.659Z,7.00
2019-05-07T09:01:17.647Z,13.20
2019-05-07T09:02:17.636Z,9.90
2019-05-07T09:03:22.101Z,10.50
2019-05-07T09:04:18.620Z,6.80
2019-05-07T09:05:17.614Z,7.10
2019-05-07T09:06:17.634Z,8.30
2019-05-07T09:07:17.591Z,9.60
2019-05-07T09:08:17.590Z,7.80
2019-05-07T09:09:17.564Z,11.80
2019-05-07T09:10:17.565Z,8.60
2019-05-07T09:11:17.544Z,6.90
2019-05-07T09:12:17.530Z,7.10
2019-05-07T09:13:17.521Z,7.80
2019-05-07T09:14:17.507Z,8.60
2019-05-07T09:15:17.504Z,6.70
2019-05-07T09:16:17.486Z,10.30
2019-05-07T09:17:17.473Z,10.00
2019-05-07T09:18:17.464Z,9.10
2019-05-07T09:19:17.467Z,6.80
2019-05-07T09:20:17.442Z,12.70
2019-05-07T09:21:17.433Z,6.60
2019-05-07T09:22:17.586Z,6.00
2019-05-07T09:23:17.412Z,8.60
2019-05-07T09:24:17.398Z,9.00
2019-05-07T09:25:17.389Z,9.90
2019-05-07T09:26:17.382Z,6.20
2019-05-07T09:27:17.369Z,7.20
2019-05-07T09:28:17.361Z,9.60
2019-05-07T09:29:17.399Z,8.80
2019-05-07T09:30:17.337Z,8.00
2019-05-07T09:31:17.364Z,6.80
2019-05-07T09:32:17.318Z,7.50
2019-05-07T09:33:17.327Z,10.90
2019-05-07T09:34:17.302Z,11.60
2019-05-07T09:35:17.280Z,9.90
2019-05-07T09:36:17.271Z,10.10
2019-05-07T09:37:17.265Z,10.80
2019-05-07T09:38:17.253Z,9.10
2019-05-07T09:39:17.244Z,8.90
2019-05-07T09:40:17.266Z,8.60
2019-05-07T09:41:17.216Z,10.30
2019-05-07T09:42:17.225Z,11.50
2019-05-07T09:43:17.193Z,9.70
2019-05-07T09:44:17.209Z,8.00
2019-05-07T09:45:17.174Z,13.20
2019-05-07T09:46:17.161Z,18.70
2019-05-07T09:47:17.162Z,9.00
2019-05-07T09:48:17.141Z,9.20
2019-05-07T09:49:17.137Z,8.50
2019-05-07T09:50:17.118Z,8.80
2019-05-07T09:51:17.144Z,8.70
2019-05-07T09:52:17.097Z,11.50
2019-05-07T09:53:17.084Z,9.60
2019-05-07T09:54:17.075Z,7.70
2019-05-07T09:55:17.646Z,9.80
2019-05-07T09:56:17.051Z,10.70
2019-05-07T09:57:30.061Z,8.70
2019-05-07T09:58:31.829Z,9.30
2019-05-07T09:59:18.024Z,10.00
2019-05-07T10:00:17.007Z,9.60
2019-05-07T10:01:16.997Z,8.50
2019-05-07T10:02:16.991Z,9.70
2019-05-07T10:03:16.976Z,10.20
2019-05-07T10:04:16.968Z,10.80
2019-05-07T10:05:16.968Z,9.90
2019-05-07T10:06:16.942Z,8.00
2019-05-07T10:07:16.933Z,9.20
2019-05-07T10:08:16.921Z,6.30
2019-05-07T10:09:16.919Z,12.80
2019-05-07T10:10:16.897Z,8.40
2019-05-07T10:11:16.887Z,9.30
2019-05-07T10:12:16.878Z,8.90
2019-05-07T10:13:16.867Z,7.40
2019-05-07T10:14:16.859Z,7.90
2019-05-07T10:15:16.845Z,8.20
2019-05-07T10:16:16.835Z,6.20
2019-05-07T10:17:16.827Z,8.20
2019-05-07T10:18:16.812Z,6.10
2019-05-07T10:19:16.829Z,6.50
2019-05-07T10:20:22.147Z,6.60
2019-05-07T10:21:17.813Z,7.90
2019-05-07T10:22:16.771Z,6.70
2019-05-07T10:23:16.757Z,4.70
2019-05-07T10:24:17.040Z,5.90
2019-05-07T10:25:16.748Z,7.70
2019-05-07T10:26:16.727Z,7.00
2019-05-07T10:27:16.739Z,8.10
2019-05-07T10:28:16.706Z,7.20
2019-05-07T10:29:16.693Z,6.50
2019-05-07T10:30:16.692Z,5.80
2019-05-07T10:31:16.677Z,5.20
2019-05-07T10:32:16.661Z,5.80
2019-05-07T10:33:16.651Z,6.10
2019-05-07T10:34:16.639Z,7.90
2019-05-07T10:35:16.643Z,5.90
2019-05-07T10:36:16.626Z,5.20
2019-05-07T10:37:16.607Z,6.60
2019-05-07T10:38:16.613Z,5.30
2019-05-07T10:39:16.585Z,5.30
2019-05-07T10:40:16.589Z,5.50
2019-05-07T10:41:16.570Z,6.20
2019-05-07T10:42:16.553Z,13.00
2019-05-07T10:43:16.542Z,7.30
2019-05-07T10:44:16.532Z,8.00
2019-05-07T10:45:16.535Z,6.90
2019-05-07T10:46:16.509Z,5.90
2019-05-07T10:47:16.502Z,7.80
2019-05-07T10:48:16.490Z,6.30
2019-05-07T10:49:16.501Z,5.90
2019-05-07T10:50:16.488Z,8.10
2019-05-07T10:51:16.469Z,9.50
2019-05-07T10:52:16.448Z,8.00
2019-05-07T10:53:16.434Z,6.10
2019-05-07T10:54:16.423Z,6.60
2019-05-07T10:55:16.431Z,8.10
2019-05-07T10:56:16.456Z,4.80
2019-05-07T10:57:16.412Z,6.60
2019-05-07T10:58:16.385Z,6.60
2019-05-07T10:59:16.383Z,6.60
2019-05-07T11:00:16.375Z,6.40
2019-05-07T11:01:16.349Z,6.70
2019-05-07T11:02:16.339Z,8.40
2019-05-07T11:03:16.331Z,8.40
2019-05-07T11:04:16.324Z,7.50
2019-05-07T11:05:16.317Z,5.50
2019-05-07T11:06:16.297Z,10.50
2019-05-07T11:07:16.285Z,7.90
2019-05-07T11:08:16.274Z,8.20
2019-05-07T11:09:16.265Z,8.00
2019-05-07T11:10:16.261Z,6.70
2019-05-07T11:11:16.243Z,6.50
2019-05-07T11:12:16.230Z,5.20
2019-05-07T11:13:16.220Z,7.30
2019-05-07T11:14:16.208Z,9.90
2019-05-07T11:15:16.213Z,6.40
2019-05-07T11:16:16.186Z,7.60
2019-05-07T11:17:16.174Z,8.40
2019-05-07T11:18:16.284Z,6.60
2019-05-07T11:19:18.764Z,6.10
2019-05-07T11:20:16.176Z,8.20
2019-05-07T11:21:16.131Z,6.20
2019-05-07T11:22:16.126Z,6.60
2019-05-07T11:23:16.111Z,10.10
2019-05-07T11:24:16.108Z,5.20
2019-05-07T11:25:17.096Z,6.30
2019-05-07T11:26:16.078Z,9.40
2019-05-07T11:27:16.111Z,9.80
2019-05-07T11:28:16.062Z,8.90
2019-05-07T11:29:16.046Z,7.00
2019-05-07T11:30:16.035Z,6.60
2019-05-07T11:31:16.038Z,8.40
2019-05-07T11:32:16.049Z,7.20
2019-05-07T11:33:16.004Z,7.00
2019-05-07T11:34:15.992Z,7.20
2019-05-07T11:35:15.985Z,9.50
2019-05-07T11:36:15.985Z,6.80
2019-05-07T11:37:15.961Z,6.80
2019-05-07T11:38:22.237Z,7.70
2019-05-07T11:39:16.965Z,9.50
2019-05-07T11:40:15.929Z,8.90
2019-05-07T11:41:15.929Z,8.80
2019-05-07T11:42:15.924Z,8.70
2019-05-07T11:43:15.910Z,8.00
2019-05-07T11:44:15.893Z,7.20
2019-05-07T11:45:15.873Z,7.70
2019-05-07T11:46:17.174Z,6.60
2019-05-07T11:47:16.285Z,8.90
2019-05-07T11:48:16.349Z,11.10
2019-05-07T11:49:15.844Z,6.40
2019-05-07T11:50:15.982Z,6.10
2019-05-07T11:51:17.047Z,10.00
2019-05-07T11:52:16.248Z,6.60
2019-05-07T11:53:15.792Z,6.90
2019-05-07T11:54:15.803Z,5.40
2019-05-07T11:55:15.772Z,9.00
2019-05-07T11:56:15.853Z,6.40
2019-05-07T11:57:15.752Z,9.50
2019-05-07T11:58:15.739Z,7.60
2019-05-07T11:59:15.728Z,8.10
2019-05-07T12:00:15.717Z,6.80
2019-05-07T12:01:15.744Z,7.20
2019-05-07T12:02:15.697Z,7.50
2019-05-07T12:03:15.685Z,8.60
2019-05-07T12:04:15.700Z,10.50
2019-05-07T12:05:15.670Z,8.10
2019-05-07T12:06:15.677Z,7.10
2019-05-07T12:07:15.649Z,8.20
2019-05-07T12:08:15.632Z,6.00
2019-05-07T12:09:15.623Z,7.00
2019-05-07T12:10:15.609Z,7.30
2019-05-07T12:11:15.600Z,7.00
2019-05-07T12:12:15.587Z,7.60
2019-05-07T12:13:15.579Z,8.50
2019-05-07T12:14:27.942Z,6.30
2019-05-07T12:15:16.560Z,7.50
2019-05-07T12:16:15.545Z,9.90
2019-05-07T12:17:15.537Z,7.40
2019-05-07T12:18:15.532Z,7.00
2019-05-07T12:19:16.576Z,8.30
2019-05-07T12:20:15.519Z,5.80
2019-05-07T12:21:20.808Z,7.10
2019-05-07T12:22:16.478Z,6.30
2019-05-07T12:23:15.471Z,6.10
2019-05-07T12:24:16.462Z,9.50
2019-05-07T12:25:15.481Z,6.20
2019-05-07T12:26:15.439Z,6.10
2019-05-07T12:27:15.436Z,6.60
2019-05-07T12:28:15.418Z,8.20
2019-05-07T12:29:15.404Z,6.40
2019-05-07T12:30:15.416Z,5.80
2019-05-07T12:31:15.384Z,6.20
2019-05-07T12:32:15.375Z,6.10
2019-05-07T12:33:15.360Z,6.70
2019-05-07T12:34:15.355Z,7.20
2019-05-07T12:35:15.341Z,5.50
2019-05-07T12:36:15.335Z,6.90
2019-05-07T12:37:15.324Z,5.50
2019-05-07T12:38:15.316Z,7.10
2019-05-07T12:39:15.299Z,6.90
2019-05-07T12:40:15.289Z,7.80
2019-05-07T12:41:15.287Z,7.30
2019-05-07T12:42:15.279Z,5.80
2019-05-07T12:43:15.259Z,5.10
2019-05-07T12:44:15.246Z,5.90
2019-05-07T12:45:15.240Z,7.00
2019-05-07T12:46:15.226Z,6.20
2019-05-07T12:47:15.226Z,6.80
2019-05-07T12:48:15.213Z,5.50
2019-05-07T12:49:15.194Z,5.80
2019-05-07T12:50:15.183Z,6.50
2019-05-07T12:51:15.171Z,5.40
2019-05-07T12:52:15.223Z,5.80
2019-05-07T12:53:15.150Z,5.30
2019-05-07T12:54:15.141Z,5.80
2019-05-07T12:55:15.134Z,9.10
2019-05-07T12:56:15.122Z,6.70
2019-05-07T12:57:15.124Z,7.80
2019-05-07T12:58:15.115Z,6.00
2019-05-07T12:59:15.191Z,6.40
2019-05-07T13:00:15.077Z,6.70